Details From KTYS - Mc Ghee Tyson
To KDNL - Daniel Fld
Flight Number -
Tags generated
Created
Modified
Stats Distance 171 nm / 316 km
Max Altitude 13,600 ft / 4,145 m
Waypoints 3
Social Downloads 0
Likes 0
Share VATSIM

Download

Looking for another format? Having issues loading an existing format? Contact us
Advertisement - Login to hide

Notes

Basic altitude profile: - Ascent Rate: 1000ft/min - Ascent Speed: 160kts - Cruise Altitude: 24000ft - Cruise Speed: 190kts - Descent Rate: 1500ft/min - Descent Speed: 210kts Options: - Use NATs: yes - Use PACOTS: yes - Use low airways: yes - Use high airways: yes

Route

KTYS ELW KDNL

ID Type Via Altitude Latitude Longitude Leg Dist Tot Dist Heading (true) Name
O KTYS APT - 0 ft / 0 m 35.81098˚ -83.99403˚ - 0 nm - Mc Ghee Tyson
ELW DME - 13,600 ft / 4,145 m 34.41919˚ -82.78468˚ 102 nm 102 nm 144° / 145° ELECTRIC CITY VORTAC
O KDNL APT - 0 ft / 0 m 33.46657˚ -82.03940˚ 68 nm 170 nm 147° / 147° Daniel Fld

Altitude Profile

Advertisement - Login to hide

Weather


0- 5 10 15 20 25 30 35+ Temperature / ° C

Clouds and Precipitation
Forecast for 2017-12-14 06:00 UTC. Updated an hour ago

Ground ~20,000 ft ~40,000 ft Winds

KTYS

Details ICAO KTYS (TYS)
Name Mc Ghee Tyson
Region United States
Timezone America/New_York (UTC-5.0)
Stats Elevation 981 ft / 299 m (AMSL)
Location 35.810979° -83.994033°
Runways 2
Magnetic Variation 5.709° W

METAR

KTYS 140153Z 23012KT 10SM FEW100 04/M08 A2977 RMK AO2 SLP085 T00441078

Decode

TAF

KTYS 132339Z 1400/1424 23012G20KT P6SM SCT100 BKN250 FM140800 23010KT P6SM SCT030 BKN200 FM141300 28007KT P6SM SCT030 BKN250 FM141900 30007KT P6SM SCT250

Decode

Departure Runways

ID Width Length Bearing (true) Bearing (mag) Surface Threshold Offset Overrun Length
05L 151 ft / 46 m 9,007 ft / 2,745 m 44.69° 50.40° Asphalt 0 ft / 0 m 1,001 ft / 305 m
05R 151 ft / 46 m 9,001 ft / 2,744 m 44.67° 50.38° Asphalt 0 ft / 0 m 180 ft / 55 m
23L 151 ft / 46 m 9,001 ft / 2,744 m 224.69° 230.40° Asphalt 420 ft / 128 m 164 ft / 50 m
23R 151 ft / 46 m 9,007 ft / 2,745 m 224.71° 230.42° Asphalt 0 ft / 0 m 968 ft / 295 m

KDNL

Details ICAO KDNL (DNL)
Name Daniel Fld
Region United States
Timezone America/New_York (UTC-5.0)
Stats Elevation 422 ft / 129 m (AMSL)
Location 33.466567° -82.039397°
Runways 2
Magnetic Variation 6.685° W

METAR

KDNL 140153Z AUTO 22004KT 10SM CLR 07/M07 A2989 RMK AO2 SLP122 T00671067

Decode

TAF

TAF AMD KDNL 140243Z 1403/1424 24008KT P6SM SCT250 WS020/24040KT FM141400 26010G15KT P6SM SCT250

Decode

Destination Runways

ID Width Length Bearing (true) Bearing (mag) Surface Threshold Offset Overrun Length
05 98 ft / 30 m 4,005 ft / 1,221 m 44.89° 51.57° Asphalt 200 ft / 61 m 0 ft / 0 m
11 98 ft / 30 m 3,732 ft / 1,137 m 104.11° 110.79° Asphalt 325 ft / 99 m 400 ft / 122 m
23 98 ft / 30 m 4,005 ft / 1,221 m 224.89° 231.57° Asphalt 289 ft / 88 m 151 ft / 46 m
29 98 ft / 30 m 3,732 ft / 1,137 m 284.12° 290.80° Asphalt 315 ft / 96 m 200 ft / 61 m

Popular Alternatives